createdAt,value
2022-10-17T00:03:29.500Z,13.01
2022-10-17T00:05:58.387Z,13.09
2022-10-17T00:08:26.395Z,13.07
2022-10-17T00:10:59.083Z,13.10
2022-10-17T00:13:27.567Z,12.98
2022-10-17T00:15:55.374Z,13.11
2022-10-17T00:18:23.386Z,13.13
2022-10-17T00:20:53.045Z,13.17
2022-10-17T00:23:20.916Z,13.08
2022-10-17T00:25:48.614Z,13.15
2022-10-17T00:28:17.161Z,13.16
2022-10-17T00:30:44.873Z,13.16
2022-10-17T00:33:12.495Z,13.15
2022-10-17T00:35:40.148Z,13.05
2022-10-17T00:38:09.256Z,13.17
2022-10-17T00:40:36.882Z,13.30
2022-10-17T00:43:04.555Z,13.21
2022-10-17T00:45:32.796Z,13.25
2022-10-17T00:48:03.835Z,13.34
2022-10-17T00:50:32.039Z,13.36
2022-10-17T00:53:03.834Z,13.38
2022-10-17T00:55:35.745Z,13.35
2022-10-17T00:58:05.492Z,13.36
2022-10-17T01:00:33.732Z,13.42
2022-10-17T01:03:01.684Z,13.44
2022-10-17T01:05:30.262Z,13.54
2022-10-17T01:07:58.080Z,13.64
2022-10-17T01:10:34.154Z,13.70
2022-10-17T01:13:12.563Z,13.74
2022-10-17T01:15:51.818Z,13.80
2022-10-17T01:18:32.162Z,13.87
2022-10-17T01:21:22.447Z,13.87
2022-10-17T01:24:33.215Z,13.85
2022-10-17T01:27:26.958Z,13.90
2022-10-17T01:30:08.845Z,13.87
2022-10-17T01:32:41.144Z,13.86
2022-10-17T01:35:12.834Z,13.79
2022-10-17T01:37:46.613Z,13.96
2022-10-17T01:40:21.375Z,13.91
2022-10-17T01:42:56.237Z,14.08
2022-10-17T01:45:30.083Z,14.15
2022-10-17T01:48:04.831Z,14.28
2022-10-17T01:50:37.343Z,14.27
2022-10-17T01:53:09.484Z,14.33
2022-10-17T01:55:40.942Z,14.44
2022-10-17T01:58:12.948Z,14.44
2022-10-17T02:00:43.901Z,14.47
2022-10-17T02:03:18.607Z,14.35
2022-10-17T02:05:46.646Z,14.50
2022-10-17T02:08:15.004Z,14.46
2022-10-17T02:10:47.913Z,14.47
2022-10-17T02:13:24.318Z,14.41
2022-10-17T02:16:13.197Z,14.38
2022-10-17T02:19:03.126Z,14.37
2022-10-17T02:21:39.480Z,14.42
2022-10-17T02:24:14.606Z,14.33
2022-10-17T02:26:49.602Z,14.37
2022-10-17T02:29:20.427Z,14.38
2022-10-17T02:31:51.040Z,14.32
2022-10-17T02:34:25.995Z,14.23
2022-10-17T02:36:57.331Z,14.24
2022-10-17T02:39:27.601Z,14.17
2022-10-17T02:41:58.110Z,14.27
2022-10-17T02:44:27.315Z,14.21
2022-10-17T02:47:01.828Z,14.23
2022-10-17T02:49:34.951Z,14.22
2022-10-17T02:52:09.254Z,14.16
2022-10-17T02:54:41.568Z,14.21
2022-10-17T02:57:13.015Z,14.29
2022-10-17T02:59:42.125Z,14.22
2022-10-17T03:02:09.803Z,14.15
2022-10-17T03:04:39.263Z,14.17
2022-10-17T03:07:06.906Z,14.17
2022-10-17T03:09:34.523Z,14.19
2022-10-17T03:12:02.142Z,14.17
2022-10-17T03:14:29.773Z,14.14
2022-10-17T03:16:57.375Z,14.07
2022-10-17T03:19:25.157Z,13.87
2022-10-17T03:21:54.236Z,13.92
2022-10-17T03:24:21.885Z,13.94
2022-10-17T03:26:49.557Z,13.95
2022-10-17T03:29:17.269Z,13.98
2022-10-17T03:31:45.009Z,14.11
2022-10-17T03:34:13.001Z,14.16
2022-10-17T03:36:40.742Z,14.17
2022-10-17T03:39:09.886Z,14.25
2022-10-17T03:41:37.519Z,14.33
2022-10-17T03:44:05.535Z,14.42
2022-10-17T03:46:33.132Z,14.52
2022-10-17T03:49:00.807Z,14.57
2022-10-17T03:51:28.515Z,14.63
2022-10-17T03:53:56.163Z,14.68
2022-10-17T03:56:26.373Z,14.67
2022-10-17T03:58:54.855Z,14.68
2022-10-17T04:01:23.339Z,14.75
2022-10-17T04:03:51.636Z,14.76
2022-10-17T04:06:20.713Z,14.77
2022-10-17T04:08:48.905Z,14.69
2022-10-17T04:11:19.080Z,14.79
2022-10-17T04:13:48.294Z,14.72
2022-10-17T04:16:18.251Z,14.72
2022-10-17T04:18:45.947Z,14.75
2022-10-17T04:21:14.595Z,14.78
2022-10-17T04:23:42.249Z,14.86
2022-10-17T04:26:09.964Z,14.95
2022-10-17T04:31:11.680Z,15.09
2022-10-17T04:33:39.660Z,15.07
2022-10-17T04:36:08.969Z,15.08
2022-10-17T04:38:37.022Z,15.03
2022-10-17T04:41:06.691Z,15.05
2022-10-17T04:43:36.870Z,15.14
2022-10-17T04:46:07.015Z,15.20
2022-10-17T04:48:36.243Z,15.11
2022-10-17T04:51:05.693Z,15.23
2022-10-17T04:53:34.943Z,15.13
2022-10-17T04:56:08.072Z,15.23
2022-10-17T04:58:35.770Z,15.29
2022-10-17T05:01:06.494Z,15.26
2022-10-17T05:03:35.850Z,15.17
2022-10-17T05:06:08.158Z,15.14
2022-10-17T05:08:36.066Z,15.22
2022-10-17T05:11:05.729Z,15.23
2022-10-17T05:13:34.027Z,15.33
2022-10-17T05:16:02.437Z,15.38
2022-10-17T05:18:30.657Z,15.47
2022-10-17T05:20:59.845Z,15.59
2022-10-17T05:23:27.592Z,15.48
2022-10-17T05:25:55.854Z,15.46
2022-10-17T05:28:24.215Z,15.53
2022-10-17T05:30:51.864Z,15.48
2022-10-17T05:33:19.629Z,15.43
2022-10-17T05:35:47.227Z,15.56
2022-10-17T05:38:16.303Z,15.34
2022-10-17T05:40:43.939Z,15.51
2022-10-17T05:43:11.725Z,15.50
2022-10-17T05:45:39.474Z,15.57
2022-10-17T05:48:09.012Z,15.45
2022-10-17T05:50:36.822Z,15.64
2022-10-17T05:53:04.524Z,15.60
2022-10-17T05:55:33.775Z,15.60
2022-10-17T05:58:01.605Z,15.60
2022-10-17T06:00:29.481Z,15.57
2022-10-17T06:02:57.365Z,15.47
2022-10-17T06:05:25.372Z,15.65
2022-10-17T06:07:56.989Z,15.49
2022-10-17T06:10:27.354Z,15.61
2022-10-17T06:12:56.702Z,15.70
2022-10-17T06:15:25.101Z,15.45
2022-10-17T06:17:52.927Z,15.71
2022-10-17T06:20:20.857Z,15.76
2022-10-17T06:22:48.594Z,15.71
2022-10-17T06:25:16.351Z,15.73
2022-10-17T06:27:44.164Z,15.62
2022-10-17T06:30:13.177Z,15.66
2022-10-17T06:32:41.037Z,15.66
2022-10-17T06:35:09.284Z,15.51
2022-10-17T06:37:37.924Z,15.68
2022-10-17T06:40:08.284Z,15.63
2022-10-17T06:42:36.111Z,15.64
2022-10-17T06:45:03.945Z,15.57
2022-10-17T06:47:33.141Z,15.66
2022-10-17T06:50:00.838Z,15.74
2022-10-17T06:52:28.702Z,15.79
2022-10-17T06:54:56.486Z,15.52
2022-10-17T06:57:24.371Z,15.79
2022-10-17T06:59:52.095Z,15.66
2022-10-17T07:02:20.456Z,15.52
2022-10-17T07:04:49.488Z,15.93
2022-10-17T07:07:17.337Z,16.06
2022-10-17T07:09:45.171Z,16.14
2022-10-17T07:12:12.889Z,16.22
2022-10-17T07:14:40.661Z,16.42
2022-10-17T07:17:08.385Z,16.31
2022-10-17T07:19:36.214Z,16.26
2022-10-17T07:22:05.331Z,16.12
2022-10-17T07:24:33.295Z,16.49
2022-10-17T07:27:01.146Z,16.41
2022-10-17T07:29:29.204Z,16.51
2022-10-17T07:31:57.012Z,16.62
2022-10-17T07:34:27.510Z,16.64
2022-10-17T07:36:55.334Z,16.66
2022-10-17T07:39:28.232Z,16.86
2022-10-17T07:41:56.090Z,17.17
2022-10-17T07:44:24.091Z,16.95
2022-10-17T07:46:51.878Z,17.11
2022-10-17T07:49:19.781Z,17.21
2022-10-17T07:51:49.026Z,17.46
2022-10-17T07:54:17.289Z,17.25
2022-10-17T07:56:51.020Z,17.34
2022-10-17T07:59:19.452Z,17.26
2022-10-17T08:01:47.290Z,17.50
2022-10-17T08:04:16.901Z,17.58
2022-10-17T08:06:44.805Z,17.47
2022-10-17T08:09:15.020Z,17.42
2022-10-17T08:11:43.924Z,17.58
2022-10-17T08:14:13.533Z,17.64
2022-10-17T08:16:41.894Z,17.71
2022-10-17T08:19:11.579Z,17.80
2022-10-17T08:21:41.385Z,17.54
2022-10-17T08:24:09.885Z,17.94
2022-10-17T08:26:42.327Z,18.06
2022-10-17T08:29:15.888Z,17.96
2022-10-17T08:31:47.703Z,18.28
2022-10-17T08:34:17.161Z,18.04
2022-10-17T08:36:45.048Z,18.52
2022-10-17T08:39:12.862Z,18.61
2022-10-17T08:42:02.014Z,18.77
2022-10-17T08:44:46.090Z,18.77
2022-10-17T08:47:16.878Z,18.79
2022-10-17T08:49:53.813Z,18.78
2022-10-17T08:52:31.193Z,18.83
2022-10-17T08:54:59.713Z,18.79
2022-10-17T08:57:28.976Z,19.02
2022-10-17T08:59:58.490Z,19.49
2022-10-17T09:02:39.886Z,19.65
2022-10-17T09:05:28.449Z,19.63
2022-10-17T09:08:04.385Z,19.60
2022-10-17T09:10:42.763Z,19.71
2022-10-17T09:13:23.951Z,19.60
2022-10-17T09:16:07.454Z,19.91
2022-10-17T09:18:38.300Z,20.06
2022-10-17T09:21:18.575Z,19.83
2022-10-17T09:23:53.239Z,19.71
2022-10-17T09:26:28.058Z,19.67
2022-10-17T09:28:59.426Z,19.57
2022-10-17T09:31:36.012Z,19.82
2022-10-17T09:34:04.535Z,19.89
2022-10-17T09:36:34.831Z,19.78
2022-10-17T09:39:05.949Z,19.66
2022-10-17T09:41:46.885Z,20.17
2022-10-17T09:44:18.930Z,20.46
2022-10-17T09:47:02.147Z,20.63
2022-10-17T09:49:33.818Z,20.67
2022-10-17T09:52:02.536Z,20.52
2022-10-17T09:54:41.322Z,20.34
2022-10-17T09:57:11.445Z,20.45
2022-10-17T09:59:41.478Z,20.26
2022-10-17T10:02:17.700Z,20.14
2022-10-17T10:05:08.766Z,20.21
2022-10-17T10:07:39.151Z,20.10
2022-10-17T10:10:09.835Z,19.90
2022-10-17T10:12:40.626Z,19.83
2022-10-17T10:15:33.723Z,19.99
2022-10-17T10:18:03.423Z,19.98
2022-10-17T10:20:34.740Z,19.87
2022-10-17T10:23:14.370Z,19.86
2022-10-17T10:25:54.344Z,19.77
2022-10-17T10:28:24.525Z,20.05
2022-10-17T10:30:54.109Z,19.87
2022-10-17T10:33:27.403Z,19.54
2022-10-17T10:36:01.903Z,19.68
2022-10-17T10:38:30.316Z,19.83
2022-10-17T10:41:05.350Z,19.60
2022-10-17T10:43:36.610Z,19.61
2022-10-17T10:46:07.705Z,19.72
2022-10-17T10:48:38.599Z,19.67
2022-10-17T10:51:14.217Z,19.83
2022-10-17T10:53:48.047Z,19.97
2022-10-17T10:56:20.906Z,19.81
2022-10-17T10:58:56.986Z,20.03
2022-10-17T11:01:31.718Z,19.90
2022-10-17T11:04:14.772Z,19.91
2022-10-17T11:06:46.449Z,19.85
2022-10-17T11:09:33.109Z,19.93
2022-10-17T11:12:07.198Z,19.94
2022-10-17T11:14:46.521Z,19.92
2022-10-17T11:17:24.411Z,19.77
2022-10-17T11:20:04.993Z,19.90
2022-10-17T11:22:38.343Z,19.67
2022-10-17T11:25:15.225Z,20.00
2022-10-17T11:27:43.242Z,19.75
2022-10-17T11:30:15.135Z,19.92
2022-10-17T11:32:47.821Z,19.69
2022-10-17T11:35:22.286Z,19.88
2022-10-17T11:37:54.770Z,19.75
2022-10-17T11:40:29.930Z,19.88
2022-10-17T11:43:01.168Z,20.08
2022-10-17T11:45:34.839Z,19.83
2022-10-17T11:48:07.390Z,19.94
2022-10-17T11:53:31.091Z,20.28
2022-10-17T11:56:01.541Z,19.85
2022-10-17T11:58:37.448Z,20.12
2022-10-17T12:01:19.616Z,20.13
2022-10-17T12:04:03.583Z,20.35
2022-10-17T12:06:52.672Z,20.54
2022-10-17T12:09:30.611Z,20.42
2022-10-17T12:12:01.384Z,20.27
2022-10-17T12:14:42.009Z,20.36
2022-10-17T12:17:39.433Z,19.98
2022-10-17T12:20:31.661Z,20.24
2022-10-17T12:23:05.696Z,20.20
2022-10-17T12:25:35.823Z,20.09
2022-10-17T12:28:15.841Z,19.81
2022-10-17T12:30:53.467Z,19.97
2022-10-17T12:33:24.076Z,19.78
2022-10-17T12:36:13.603Z,19.74
2022-10-17T12:38:45.712Z,19.98
2022-10-17T12:41:16.084Z,19.81
2022-10-17T12:46:43.943Z,19.87
2022-10-17T12:49:42.603Z,19.59
2022-10-17T12:52:31.241Z,19.51
2022-10-17T12:55:14.010Z,19.58
2022-10-17T12:57:48.476Z,19.49
2022-10-17T13:00:22.886Z,19.52
2022-10-17T13:02:53.408Z,19.48
2022-10-17T13:05:28.853Z,19.40
2022-10-17T13:08:00.223Z,19.27
2022-10-17T13:10:32.924Z,19.19
2022-10-17T13:13:14.700Z,19.30
2022-10-17T13:15:47.382Z,19.51
2022-10-17T13:18:21.787Z,19.46
2022-10-17T13:21:02.137Z,19.52
2022-10-17T13:23:35.324Z,19.21
2022-10-17T13:26:08.260Z,18.83
2022-10-17T13:28:42.670Z,19.22
2022-10-17T13:31:34.617Z,19.05
2022-10-17T13:34:04.513Z,18.88
2022-10-17T13:36:34.955Z,18.99
2022-10-17T13:39:14.979Z,19.02
2022-10-17T13:41:50.385Z,18.97
2022-10-17T13:44:22.327Z,18.83
2022-10-17T13:46:50.578Z,19.10
2022-10-17T13:49:25.960Z,18.59
2022-10-17T13:51:57.536Z,18.82
2022-10-17T13:54:39.173Z,18.84
2022-10-17T13:57:22.231Z,18.41
2022-10-17T13:59:52.715Z,18.36
2022-10-17T14:02:22.948Z,18.54
2022-10-17T14:05:16.792Z,18.36
2022-10-17T14:10:43.051Z,18.73
2022-10-17T14:13:26.844Z,18.49
2022-10-17T14:15:58.765Z,18.28
2022-10-17T14:18:35.713Z,18.30
2022-10-17T14:24:13.945Z,18.37
2022-10-17T14:26:51.963Z,18.46
2022-10-17T14:29:25.545Z,18.31
2022-10-17T14:32:01.703Z,18.67
2022-10-17T14:34:32.945Z,18.33
2022-10-17T14:37:01.566Z,18.71
2022-10-17T14:39:30.415Z,18.55
2022-10-17T14:42:03.419Z,18.59
2022-10-17T14:44:37.896Z,18.35
2022-10-17T14:47:41.814Z,18.47
2022-10-17T14:50:06.844Z,18.27
2022-10-17T14:52:39.056Z,18.30
2022-10-17T14:55:25.023Z,18.59
2022-10-17T14:57:52.832Z,18.29
2022-10-17T15:00:23.797Z,18.34
2022-10-17T15:02:53.388Z,18.40
2022-10-17T15:05:23.158Z,18.46
2022-10-17T15:07:50.864Z,18.55
2022-10-17T15:10:33.946Z,18.45
2022-10-17T15:15:52.501Z,18.51
2022-10-17T15:18:20.922Z,18.53
2022-10-17T15:20:55.255Z,18.47
2022-10-17T15:23:32.749Z,18.47
2022-10-17T15:26:03.866Z,18.52
2022-10-17T15:28:31.834Z,18.39
2022-10-17T15:31:01.137Z,18.35
2022-10-17T15:33:28.981Z,18.27
2022-10-17T15:38:26.004Z,18.21
2022-10-17T15:40:53.911Z,18.03
2022-10-17T15:43:22.060Z,18.15
2022-10-17T15:45:50.253Z,18.29
2022-10-17T15:48:25.576Z,18.19
2022-10-17T15:50:53.431Z,18.11
2022-10-17T15:53:21.188Z,17.79
2022-10-17T15:55:51.049Z,17.92
2022-10-17T15:58:20.453Z,17.74
2022-10-17T16:00:49.715Z,17.75
2022-10-17T16:03:19.039Z,17.69
2022-10-17T16:05:46.919Z,17.75
2022-10-17T16:08:14.607Z,17.48
2022-10-17T16:10:42.702Z,17.75
2022-10-17T16:13:17.431Z,17.74
2022-10-17T16:15:45.223Z,17.75
2022-10-17T16:18:12.877Z,17.73
2022-10-17T16:20:42.215Z,17.68
2022-10-17T16:23:13.532Z,17.56
2022-10-17T16:25:41.573Z,17.50
2022-10-17T16:28:09.513Z,17.50
2022-10-17T16:30:46.429Z,17.53
2022-10-17T16:33:14.706Z,17.51
2022-10-17T16:35:45.647Z,17.53
2022-10-17T16:38:15.479Z,17.29
2022-10-17T16:40:43.407Z,17.40
2022-10-17T16:43:13.306Z,17.41
2022-10-17T16:45:41.391Z,17.26
2022-10-17T16:48:10.360Z,17.36
2022-10-17T16:50:40.476Z,17.43
2022-10-17T16:53:09.519Z,17.43
2022-10-17T16:55:37.447Z,16.98
2022-10-17T16:58:05.351Z,16.93
2022-10-17T17:00:33.219Z,17.25
2022-10-17T17:03:01.031Z,17.20
2022-10-17T17:05:28.818Z,17.19
2022-10-17T17:07:56.767Z,17.15
2022-10-17T17:10:25.898Z,17.02
2022-10-17T17:12:53.855Z,17.10
2022-10-17T17:15:21.497Z,17.10
2022-10-17T17:17:52.446Z,17.11
2022-10-17T17:20:22.959Z,17.00
2022-10-17T17:22:51.886Z,17.13
2022-10-17T17:25:19.690Z,16.95
2022-10-17T17:27:48.977Z,16.87
2022-10-17T17:30:17.482Z,16.94
2022-10-17T17:32:45.103Z,16.82
2022-10-17T17:35:12.721Z,16.76
2022-10-17T17:37:40.449Z,16.79
2022-10-17T17:40:09.411Z,16.61
2022-10-17T17:42:37.255Z,16.59
2022-10-17T17:45:07.395Z,16.42
2022-10-17T17:47:35.099Z,16.65
2022-10-17T17:50:03.648Z,16.67
2022-10-17T17:52:31.816Z,16.46
2022-10-17T17:54:59.748Z,16.51
2022-10-17T17:57:27.592Z,16.28
2022-10-17T17:59:55.262Z,16.47
2022-10-17T18:02:24.458Z,16.54
2022-10-17T18:04:52.199Z,16.42
2022-10-17T18:07:20.026Z,16.28
2022-10-17T18:09:48.113Z,16.21
2022-10-17T18:12:15.892Z,16.43
2022-10-17T18:14:43.601Z,16.36
2022-10-17T18:17:11.270Z,16.39
2022-10-17T18:19:40.426Z,16.19
2022-10-17T18:22:08.069Z,16.36
2022-10-17T18:24:35.773Z,16.33
2022-10-17T18:27:03.525Z,16.40
2022-10-17T18:29:32.701Z,16.41
2022-10-17T18:32:00.518Z,16.39
2022-10-17T18:34:28.679Z,16.20
2022-10-17T18:36:58.903Z,16.18
2022-10-17T18:39:27.020Z,16.03
2022-10-17T18:41:54.805Z,16.25
2022-10-17T18:44:22.842Z,16.10
2022-10-17T18:46:50.830Z,16.23
2022-10-17T18:49:23.077Z,16.34
2022-10-17T18:51:51.238Z,15.97
2022-10-17T18:54:22.340Z,16.29
2022-10-17T18:56:52.101Z,16.32
2022-10-17T18:59:20.325Z,16.30
2022-10-17T19:01:48.846Z,16.23
2022-10-17T19:04:17.021Z,16.16
2022-10-17T19:06:44.891Z,16.15
2022-10-17T19:09:14.181Z,16.08
2022-10-17T19:11:43.439Z,16.03
2022-10-17T19:14:13.851Z,16.14
2022-10-17T19:16:43.776Z,16.09
2022-10-17T19:19:15.037Z,16.03
2022-10-17T19:21:43.636Z,16.06
2022-10-17T19:24:14.815Z,15.96
2022-10-17T19:26:45.700Z,15.91
2022-10-17T19:29:15.157Z,15.88
2022-10-17T19:31:43.235Z,15.89
2022-10-17T19:34:11.519Z,15.90
2022-10-17T19:36:39.363Z,15.73
2022-10-17T19:39:11.897Z,15.66
2022-10-17T19:41:41.315Z,15.76
2022-10-17T19:44:11.018Z,15.86
2022-10-17T19:46:39.615Z,15.91
2022-10-17T19:49:08.050Z,15.91
2022-10-17T19:51:35.787Z,15.92
2022-10-17T19:54:03.680Z,15.85
2022-10-17T19:56:32.890Z,15.85
2022-10-17T19:59:00.741Z,15.84
2022-10-17T20:01:31.736Z,15.81
2022-10-17T20:03:59.802Z,15.72
2022-10-17T20:06:27.560Z,15.53
2022-10-17T20:08:55.745Z,15.68
2022-10-17T20:11:26.122Z,15.73
2022-10-17T20:13:54.932Z,15.57
2022-10-17T20:16:24.533Z,15.50
2022-10-17T20:18:55.703Z,15.59
2022-10-17T20:21:27.247Z,15.63
2022-10-17T20:23:55.530Z,15.54
2022-10-17T20:26:36.556Z,15.36
2022-10-17T20:29:11.067Z,15.51
2022-10-17T20:31:39.617Z,15.53
2022-10-17T20:34:08.686Z,15.47
2022-10-17T20:36:37.544Z,15.48
2022-10-17T20:39:07.652Z,15.38
2022-10-17T20:41:36.180Z,15.42
2022-10-17T20:44:04.697Z,15.38
2022-10-17T20:46:37.196Z,15.38
2022-10-17T20:49:06.470Z,15.28
2022-10-17T20:51:36.594Z,15.02
2022-10-17T20:54:05.142Z,15.21
2022-10-17T20:56:34.752Z,14.94
2022-10-17T20:59:04.541Z,14.94
2022-10-17T21:01:34.641Z,15.09
2022-10-17T21:04:27.013Z,14.96
2022-10-17T21:06:53.353Z,15.25
2022-10-17T21:09:21.805Z,15.15
2022-10-17T21:11:51.414Z,15.17
2022-10-17T21:14:19.778Z,15.06
2022-10-17T21:16:47.944Z,15.03
2022-10-17T21:19:16.998Z,14.91
2022-10-17T21:21:46.824Z,15.02
2022-10-17T21:24:19.174Z,14.92
2022-10-17T21:26:49.739Z,15.09
2022-10-17T21:29:17.463Z,15.00
2022-10-17T21:31:45.661Z,15.04
2022-10-17T21:34:15.263Z,15.02
2022-10-17T21:36:43.627Z,14.99
2022-10-17T21:39:12.772Z,14.97
2022-10-17T21:41:42.720Z,14.69
2022-10-17T21:44:13.282Z,14.85
2022-10-17T21:46:41.115Z,14.86
2022-10-17T21:49:08.908Z,14.82
2022-10-17T21:51:36.744Z,14.85
2022-10-17T21:54:05.898Z,14.73
2022-10-17T21:56:34.813Z,14.61
2022-10-17T21:59:04.761Z,14.62
2022-10-17T22:01:35.670Z,14.72
2022-10-17T22:04:05.953Z,14.39
2022-10-17T22:06:40.080Z,14.69
2022-10-17T22:09:10.811Z,14.71
2022-10-17T22:11:38.583Z,14.61
2022-10-17T22:14:12.024Z,14.67
2022-10-17T22:16:40.167Z,14.56
2022-10-17T22:19:09.293Z,14.60
2022-10-17T22:21:38.005Z,14.52
2022-10-17T22:24:08.633Z,14.54
2022-10-17T22:26:38.228Z,14.45
2022-10-17T22:29:08.375Z,14.37
2022-10-17T22:31:36.853Z,14.30
2022-10-17T22:34:05.746Z,14.37
2022-10-17T22:36:33.995Z,14.38
2022-10-17T22:39:01.658Z,14.45
2022-10-17T22:41:29.354Z,14.46
2022-10-17T22:43:57.252Z,14.39
2022-10-17T22:46:26.965Z,14.54
2022-10-17T22:48:54.867Z,14.33
2022-10-17T22:53:55.645Z,14.40
2022-10-17T22:56:23.881Z,14.38
2022-10-17T22:58:52.191Z,14.45
2022-10-17T23:01:22.402Z,14.51
2022-10-17T23:03:52.536Z,14.38
2022-10-17T23:06:20.661Z,14.43
2022-10-17T23:08:49.888Z,14.47
2022-10-17T23:11:18.015Z,14.49
2022-10-17T23:13:45.864Z,14.13
2022-10-17T23:16:13.617Z,14.40
2022-10-17T23:18:41.370Z,14.44
2022-10-17T23:21:10.589Z,14.41
2022-10-17T23:23:38.541Z,14.36
2022-10-17T23:26:07.767Z,14.37
2022-10-17T23:28:35.944Z,14.31
2022-10-17T23:31:11.342Z,14.39
2022-10-17T23:33:41.414Z,14.39
2022-10-17T23:36:11.740Z,14.42
2022-10-17T23:38:39.871Z,14.40
2022-10-17T23:41:08.013Z,14.38
2022-10-17T23:43:36.583Z,14.31
2022-10-17T23:46:05.892Z,14.30
2022-10-17T23:48:34.000Z,14.37
2022-10-17T23:51:01.887Z,14.32
2022-10-17T23:53:31.480Z,14.45
2022-10-17T23:55:59.348Z,14.46
2022-10-17T23:58:27.233Z,14.38
